Accueil
METAR-TAF:

METAR-TAF

Aéroports :

St Athan, Pays de Galles

latitude: 51-24N, longitude: 003-26W, altitude: 50 m

Observation

Le bulletin a été fait il y a 45 minutes, à 23:50 UTC
Vent 9 kt de ouest
Température 9°C
Humidité 81%
Pression 1037 hPa
Visibilité 10 km ou plus

METAR: EGDX 222350Z AUTO 28009KT 9999 NCD 09/06 Q1037

Heure: 01:35 (00:35 UTC)

Prévision

Le bulletin a été fait il y a 10 heures et 43 minutes, à 13:52 UTC
Prévision valable du 22 à 15 UTC au 22 à 18 UTC
Vent 6 kt de nord/nord-est
Visibilité 10 km ou plus
Quelques nuages à une hauteur de 3000 ft

TAF: EGDX 221352Z 2215/2218 02006KT 9999 FEW030

Observations et prévisions météorologiques de plus de 4000 aéroports (messages METAR et TAF).

Les stations disponibles sont représentées par des disques jaunes et rouges sur la carte.

Passer la souris dessus pour voir le nom de la station.

Cliquer dessus pour voir les observations et prévisions météorologiques.

Pour changer de carte: cliquez sur les boutons verts avec une croix noire pour zoomer, sur le bouton vert avec un tiret pour effectuer un zoom arrière, ou sur les flèches vertes pour les cartes adjacentes.


METAR-TAF: